Time;durP1;ratioP1;P1;durP2;ratioP2;P2;SDS_P1;SDS_P2;PMS_P1;PMS_P2;Temp;Humidity;BMP_temperature;BMP_pressure;BME280_temperature;BME280_humidity;BME280_pressure;Samples;Min_cycle;Max_cycle;Signal;HPM_P1;HPM_P2
2021/04/30 00:00:06;;;;;;;5.38;2.08;;;4.60;81.70;;;;;;4950323;28;20226;-83
2021/04/30 00:02:38;;;;;;;4.68;2.70;;;4.60;81.70;;;;;;4971069;28;20118;-83
2021/04/30 00:05:20;;;;;;;5.18;2.67;;;4.60;81.50;;;;;;4955541;28;20120;-83
2021/04/30 00:07:49;;;;;;;5.60;2.70;;;4.60;81.50;;;;;;4932677;29;20084;-84
2021/04/30 00:10:20;;;;;;;6.45;2.78;;;4.60;81.40;;;;;;4929777;28;20058;-86
2021/04/30 00:12:51;;;;;;;3.55;1.90;;;4.70;81.60;;;;;;4960512;28;20132;-84
2021/04/30 00:15:20;;;;;;;6.03;2.58;;;4.70;81.10;;;;;;4940056;28;20093;-85
2021/04/30 00:17:48;;;;;;;3.67;2.13;;;4.70;80.90;;;;;;4964008;28;20078;-85
2021/04/30 00:20:18;;;;;;;4.93;2.47;;;4.60;80.70;;;;;;4971584;28;20135;-83
2021/04/30 00:22:47;;;;;;;7.10;2.22;;;4.60;81.00;;;;;;4960439;28;20114;-83
2021/04/30 00:25:17;;;;;;;5.32;2.45;;;4.60;81.10;;;;;;4968189;28;20089;-85
2021/04/30 00:27:45;;;;;;;4.95;2.28;;;4.50;81.30;;;;;;4976185;28;20066;-85
2021/04/30 00:30:14;;;;;;;4.10;2.10;;;4.40;81.60;;;;;;4961742;28;20082;-84
2021/04/30 00:32:42;;;;;;;5.22;2.53;;;4.30;81.80;;;;;;4951942;28;20063;-86
2021/04/30 00:35:09;;;;;;;7.05;2.00;;;4.30;81.70;;;;;;4970722;28;20051;-83
2021/04/30 00:37:39;;;;;;;6.93;2.55;;;4.30;81.80;;;;;;4963040;28;20082;-83
2021/04/30 00:40:07;;;;;;;5.63;2.80;;;4.30;81.50;;;;;;4977000;28;20066;-84
2021/04/30 00:42:35;;;;;;;4.95;2.58;;;4.30;81.30;;;;;;4950536;28;20055;-84
2021/04/30 00:45:02;;;;;;;4.45;2.17;;;4.20;81.50;;;;;;4947171;28;20058;-83
2021/04/30 00:47:31;;;;;;;5.40;2.58;;;4.10;82.40;;;;;;4956559;28;20051;-83
2021/04/30 00:50:01;;;;;;;4.00;2.08;;;4.00;82.80;;;;;;4946571;29;20043;-87
2021/04/30 00:52:28;;;;;;;4.40;1.98;;;4.00;82.70;;;;;;4941064;29;20122;-85
2021/04/30 00:54:59;;;;;;;5.75;2.40;;;4.10;82.50;;;;;;4955523;28;20059;-82
2021/04/30 00:57:27;;;;;;;7.32;2.30;;;4.00;82.80;;;;;;4951306;28;20584;-85
2021/04/30 00:59:54;;;;;;;6.63;2.97;;;4.10;82.90;;;;;;4960600;28;20129;-83
2021/04/30 01:02:21;;;;;;;4.75;2.55;;;4.00;82.70;;;;;;4951700;28;20044;-85
2021/04/30 01:04:48;;;;;;;6.93;2.50;;;4.10;82.90;;;;;;4959980;28;20327;-85
2021/04/30 01:07:15;;;;;;;4.50;2.28;;;4.00;83.00;;;;;;4957525;28;20569;-83
2021/04/30 01:09:42;;;;;;;5.65;2.47;;;4.00;83.00;;;;;;4937085;29;20046;-86
2021/04/30 01:12:11;;;;;;;4.35;1.75;;;4.00;83.80;;;;;;4958472;28;20054;-85
2021/04/30 01:14:38;;;;;;;3.95;2.30;;;4.00;82.70;;;;;;4939360;29;20062;-85
2021/04/30 01:17:05;;;;;;;4.05;1.80;;;3.90;82.80;;;;;;4953861;28;20102;-84
2021/04/30 01:19:32;;;;;;;5.07;2.33;;;3.90;82.90;;;;;;4955719;28;20371;-85
2021/04/30 01:22:01;;;;;;;4.18;2.13;;;3.80;83.10;;;;;;4946236;28;20071;-85
2021/04/30 01:24:29;;;;;;;4.57;2.42;;;3.70;83.30;;;;;;4956360;28;20086;-85
2021/04/30 01:26:56;;;;;;;3.95;2.25;;;3.80;83.00;;;;;;4961947;28;20267;-82
2021/04/30 01:29:24;;;;;;;4.63;2.55;;;3.70;83.70;;;;;;4965551;28;20051;-84
2021/04/30 01:31:51;;;;;;;4.97;2.35;;;3.70;83.80;;;;;;4966837;28;20051;-84
2021/04/30 01:34:18;;;;;;;4.43;2.08;;;3.70;83.80;;;;;;4961406;28;20267;-85
2021/04/30 01:36:45;;;;;;;6.78;2.67;;;3.70;84.00;;;;;;4970913;28;20239;-85
2021/04/30 01:39:14;;;;;;;7.40;2.42;;;3.70;84.10;;;;;;4962292;28;20064;-85
2021/04/30 01:41:43;;;;;;;5.03;2.88;;;3.60;84.10;;;;;;4972619;28;20062;-84
2021/04/30 01:44:11;;;;;;;4.15;2.08;;;3.60;84.30;;;;;;4978134;28;20052;-87
2021/04/30 01:46:38;;;;;;;5.03;2.40;;;3.50;84.20;;;;;;4962516;28;20307;-85
2021/04/30 01:49:06;;;;;;;5.65;2.67;;;3.50;84.50;;;;;;4965549;28;20062;-84
2021/04/30 01:51:35;;;;;;;5.65;2.92;;;3.50;84.50;;;;;;4960785;28;20219;-84
2021/04/30 01:54:03;;;;;;;7.25;3.13;;;3.40;84.80;;;;;;4948407;28;20059;-86
2021/04/30 01:56:31;;;;;;;6.53;3.05;;;3.40;84.80;;;;;;4936667;29;20155;-84
2021/04/30 01:58:58;;;;;;;4.68;2.50;;;3.30;85.00;;;;;;4955699;29;20051;-84
2021/04/30 02:01:25;;;;;;;6.57;2.85;;;3.30;85.00;;;;;;4944140;29;20058;-85
2021/04/30 02:03:52;;;;;;;4.22;2.80;;;3.30;85.20;;;;;;4958301;28;20054;-84
2021/04/30 02:06:20;;;;;;;4.32;2.50;;;3.20;85.30;;;;;;4961928;28;20047;-85
2021/04/30 02:08:48;;;;;;;5.95;2.97;;;3.30;85.20;;;;;;4963126;28;20060;-84
2021/04/30 02:11:19;;;;;;;6.20;2.83;;;3.20;85.50;;;;;;4962974;28;20047;-85
2021/04/30 02:13:50;;;;;;;6.50;3.45;;;3.20;85.60;;;;;;4965331;28;20051;-84
2021/04/30 02:16:17;;;;;;;6.50;2.78;;;3.20;85.70;;;;;;4959644;28;20039;-84
2021/04/30 02:18:44;;;;;;;6.88;3.00;;;3.20;85.50;;;;;;4955147;28;20351;-85
2021/04/30 02:21:11;;;;;;;6.03;2.78;;;3.10;85.70;;;;;;4961903;28;20054;-84
2021/04/30 02:23:38;;;;;;;5.80;2.75;;;3.20;85.90;;;;;;4961761;28;20055;-84
2021/04/30 02:26:10;;;;;;;5.80;2.90;;;3.10;85.80;;;;;;4958659;28;20082;-84
2021/04/30 02:28:37;;;;;;;6.68;3.45;;;3.00;86.20;;;;;;4962618;28;20385;-85
2021/04/30 02:31:04;;;;;;;4.80;2.78;;;3.10;86.00;;;;;;4935144;28;20043;-84
2021/04/30 02:33:31;;;;;;;8.35;3.00;;;3.10;85.70;;;;;;4955711;28;20047;-83
2021/04/30 02:35:58;;;;;;;6.15;2.67;;;3.10;85.70;;;;;;4948976;28;20089;-85
2021/04/30 02:38:26;;;;;;;7.10;3.10;;;3.10;85.90;;;;;;4955388;28;20444;-84
2021/04/30 02:40:53;;;;;;;5.97;3.38;;;3.20;86.10;;;;;;4951586;28;20047;-84
2021/04/30 02:43:22;;;;;;;9.15;3.53;;;3.20;85.80;;;;;;4953860;28;20390;-85
2021/04/30 02:45:51;;;;;;;7.60;4.22;;;3.30;85.50;;;;;;4933872;29;20339;-86
2021/04/30 02:48:27;;;;;;;8.27;3.75;;;3.30;85.50;;;;;;4954485;28;20078;-84
2021/04/30 02:50:54;;;;;;;7.82;4.03;;;3.30;85.60;;;;;;4965902;28;20051;-84
2021/04/30 02:53:21;;;;;;;11.68;4.63;;;3.30;85.40;;;;;;4937861;28;20047;-82
2021/04/30 02:55:48;;;;;;;9.77;4.35;;;3.20;85.40;;;;;;4956722;28;20358;-83
2021/04/30 02:58:15;;;;;;;8.68;4.50;;;3.20;85.50;;;;;;4935975;28;20070;-82
2021/04/30 03:00:42;;;;;;;5.68;3.15;;;3.20;85.70;;;;;;4953281;28;20090;-83
2021/04/30 03:03:09;;;;;;;7.57;3.42;;;3.20;85.60;;;;;;4951103;28;20039;-86
2021/04/30 03:05:37;;;;;;;7.43;2.95;;;3.20;85.30;;;;;;4968275;28;20351;-82
2021/04/30 03:08:05;;;;;;;7.68;3.47;;;3.20;85.40;;;;;;4953812;28;20043;-84
2021/04/30 03:10:32;;;;;;;8.27;3.65;;;3.20;85.60;;;;;;4958963;28;20118;-83
2021/04/30 03:13:00;;;;;;;6.68;3.85;;;3.30;85.30;;;;;;4953351;28;20050;-82
2021/04/30 03:15:34;;;;;;;8.82;4.28;;;3.30;84.90;;;;;;4966358;28;20043;-84
2021/04/30 03:18:04;;;;;;;8.30;4.15;;;3.30;84.70;;;;;;4956567;28;20054;-84
2021/04/30 03:20:32;;;;;;;10.45;3.97;;;3.20;84.90;;;;;;4954991;28;20055;-85
2021/04/30 03:23:00;;;;;;;7.78;4.28;;;3.20;85.00;;;;;;4955352;29;20071;-85
2021/04/30 03:25:28;;;;;;;8.68;3.88;;;3.20;85.00;;;;;;4954877;28;20393;-84
2021/04/30 03:27:55;;;;;;;6.90;3.40;;;3.10;85.20;;;;;;4962471;28;20051;-85
2021/04/30 03:30:22;;;;;;;7.47;3.85;;;3.00;85.60;;;;;;4945104;28;20051;-83
2021/04/30 03:32:49;;;;;;;8.93;3.92;;;3.00;85.40;;;;;;4960065;28;20055;-85
2021/04/30 03:35:18;;;;;;;9.45;4.28;;;3.00;85.30;;;;;;4962886;28;20059;-86
2021/04/30 03:37:46;;;;;;;10.68;4.97;;;3.00;85.20;;;;;;4968049;28;20063;-81
2021/04/30 03:40:15;;;;;;;9.20;4.10;;;3.00;85.10;;;;;;4946640;28;20142;-82
2021/04/30 03:42:42;;;;;;;7.68;4.68;;;3.00;85.10;;;;;;4962650;28;20271;-83
2021/04/30 03:45:11;;;;;;;9.77;4.97;;;2.90;85.00;;;;;;4979780;28;20055;-84
2021/04/30 03:47:38;;;;;;;10.05;4.25;;;2.90;85.10;;;;;;4960787;28;20061;-84
2021/04/30 03:50:23;;;;;;;7.88;3.75;;;2.80;85.20;;;;;;4944311;28;20047;-85
2021/04/30 03:52:50;;;;;;;10.20;4.22;;;2.70;85.40;;;;;;4963777;28;20043;-80
2021/04/30 03:55:18;;;;;;;7.65;4.43;;;2.70;85.70;;;;;;4969389;28;20057;-82
2021/04/30 03:57:45;;;;;;;11.55;4.35;;;2.70;86.20;;;;;;4949730;28;20141;-84
2021/04/30 04:00:16;;;;;;;7.22;4.55;;;2.80;86.60;;;;;;4948769;28;20066;-84
2021/04/30 04:02:44;;;;;;;10.13;5.30;;;2.90;86.90;;;;;;4952652;28;20053;-84
2021/04/30 04:05:11;;;;;;;9.18;4.57;;;3.10;86.50;;;;;;4952632;28;20054;-82
2021/04/30 04:07:38;;;;;;;13.80;5.25;;;3.30;86.10;;;;;;4957977;28;20116;-81
2021/04/30 04:10:06;;;;;;;9.18;5.07;;;3.40;85.70;;;;;;4960132;28;20212;-83
2021/04/30 04:12:34;;;;;;;9.52;4.60;;;3.50;85.40;;;;;;4967280;28;20099;-86
2021/04/30 04:15:03;;;;;;;9.13;4.80;;;3.70;85.10;;;;;;4958523;28;20054;-86
2021/04/30 04:17:30;;;;;;;9.38;5.00;;;3.80;84.60;;;;;;4962344;28;20058;-85
2021/04/30 04:19:57;;;;;;;9.48;5.07;;;3.90;83.70;;;;;;4960148;28;20087;-83
2021/04/30 04:22:25;;;;;;;11.05;4.50;;;4.00;83.20;;;;;;4968693;28;20062;-84
2021/04/30 04:24:52;;;;;;;9.32;5.03;;;4.20;83.20;;;;;;4966997;28;20055;-86
2021/04/30 04:27:19;;;;;;;8.30;4.25;;;4.20;82.30;;;;;;4958799;28;20514;-82
2021/04/30 04:29:47;;;;;;;9.05;5.05;;;4.10;82.20;;;;;;4962007;28;20035;-84
2021/04/30 04:32:14;;;;;;;9.65;4.43;;;4.10;82.30;;;;;;4973463;28;20055;-83
2021/04/30 04:34:42;;;;;;;10.05;5.13;;;4.20;82.20;;;;;;4960385;28;20373;-83
2021/04/30 04:37:09;;;;;;;9.20;4.13;;;4.20;82.20;;;;;;4951925;28;20720;-85
2021/04/30 04:39:36;;;;;;;12.45;5.07;;;4.30;82.10;;;;;;4944655;28;20078;-85
2021/04/30 04:42:05;;;;;;;13.32;5.72;;;4.30;82.40;;;;;;4947192;28;20717;-84
2021/04/30 04:44:32;;;;;;;9.50;5.28;;;4.30;82.50;;;;;;4947704;29;20363;-83
2021/04/30 04:47:01;;;;;;;10.77;5.32;;;4.40;82.40;;;;;;4949196;28;20156;-84
2021/04/30 04:49:29;;;;;;;9.13;4.72;;;4.50;82.20;;;;;;4952885;28;20051;-81
2021/04/30 04:51:57;;;;;;;12.30;6.22;;;4.50;81.90;;;;;;4938915;29;20058;-84
2021/04/30 04:54:26;;;;;;;10.60;5.07;;;4.50;82.20;;;;;;4953399;28;20070;-83
2021/04/30 04:56:53;;;;;;;8.63;4.75;;;4.70;81.60;;;;;;4962652;28;20050;-85
2021/04/30 04:59:20;;;;;;;9.57;5.35;;;4.70;81.30;;;;;;4962721;28;20043;-83
2021/04/30 05:01:47;;;;;;;13.38;6.00;;;4.90;81.10;;;;;;4964719;28;20094;-85
2021/04/30 05:04:15;;;;;;;10.32;5.82;;;5.00;80.90;;;;;;4965621;28;20051;-83
2021/04/30 05:06:42;;;;;;;8.77;5.65;;;5.00;80.60;;;;;;4964383;28;20361;-86
2021/04/30 05:09:10;;;;;;;10.50;4.90;;;5.10;80.80;;;;;;4963101;28;20338;-84
2021/04/30 05:11:38;;;;;;;13.07;5.93;;;5.10;80.60;;;;;;4966866;28;20106;-84
2021/04/30 05:14:05;;;;;;;10.15;5.25;;;5.10;80.40;;;;;;4949426;28;20074;-86
2021/04/30 05:16:32;;;;;;;9.23;5.25;;;5.30;79.80;;;;;;4967545;28;20047;-85
2021/04/30 05:18:59;;;;;;;10.50;5.18;;;5.20;79.50;;;;;;4947181;28;20055;-83
2021/04/30 05:21:31;;;;;;;11.45;5.82;;;5.00;80.00;;;;;;4966845;28;20382;-86
2021/04/30 05:23:59;;;;;;;11.20;5.70;;;5.10;80.00;;;;;;4964480;28;20062;-84
2021/04/30 05:26:31;;;;;;;12.13;5.70;;;5.20;79.40;;;;;;4965208;28;20181;-85
2021/04/30 05:28:59;;;;;;;13.38;6.07;;;5.20;80.00;;;;;;4951659;28;20121;-86
2021/04/30 05:31:26;;;;;;;10.43;6.05;;;5.50;79.50;;;;;;4956912;28;20650;-85
2021/04/30 05:33:53;;;;;;;11.00;5.63;;;5.80;78.30;;;;;;4957506;29;20059;-82
2021/04/30 05:36:20;;;;;;;9.73;5.72;;;6.00;77.50;;;;;;4958991;28;20070;-85
2021/04/30 05:38:48;;;;;;;13.82;6.38;;;6.10;77.30;;;;;;4955983;28;20284;-85
2021/04/30 05:41:15;;;;;;;10.45;5.53;;;6.20;76.70;;;;;;4957383;28;20077;-86
2021/04/30 05:43:42;;;;;;;11.27;6.28;;;6.20;76.40;;;;;;4952629;28;20055;-87
2021/04/30 05:46:09;;;;;;;11.70;6.38;;;6.20;76.70;;;;;;4958749;28;20063;-84
2021/04/30 05:48:37;;;;;;;13.25;6.70;;;6.30;76.50;;;;;;4957469;28;20050;-86
2021/04/30 05:51:05;;;;;;;12.10;6.50;;;6.40;76.50;;;;;;4966702;28;20263;-85
2021/04/30 05:53:32;;;;;;;13.43;6.25;;;6.50;76.20;;;;;;4955524;28;20090;-85
2021/04/30 05:56:00;;;;;;;10.50;6.70;;;6.60;76.00;;;;;;4956266;28;20063;-84
2021/04/30 05:58:27;;;;;;;13.10;6.53;;;6.70;75.30;;;;;;4956185;28;20054;-85
2021/04/30 06:00:54;;;;;;;12.50;7.35;;;7.00;75.10;;;;;;4949842;28;20055;-86
2021/04/30 06:03:21;;;;;;;11.35;6.75;;;7.20;74.40;;;;;;4954432;28;20098;-83
2021/04/30 06:05:48;;;;;;;15.82;8.52;;;7.30;73.30;;;;;;4953533;29;20055;-83
2021/04/30 06:08:15;;;;;;;13.50;6.38;;;7.20;73.00;;;;;;4970414;28;20114;-87
2021/04/30 06:10:43;;;;;;;14.20;6.72;;;7.20;72.90;;;;;;4930530;29;20051;-86
2021/04/30 06:13:10;;;;;;;12.30;6.82;;;7.30;72.80;;;;;;4935239;28;20051;-84
2021/04/30 06:15:38;;;;;;;12.07;6.68;;;7.50;72.60;;;;;;4950694;28;20047;-86
2021/04/30 06:18:05;;;;;;;10.75;6.15;;;7.70;71.40;;;;;;4951868;28;20062;-84
2021/04/30 06:20:32;;;;;;;13.88;6.70;;;7.50;70.90;;;;;;4938299;29;20047;-84
2021/04/30 06:22:59;;;;;;;14.65;8.20;;;7.60;70.90;;;;;;4953972;29;20236;-84
2021/04/30 06:25:26;;;;;;;12.68;7.38;;;7.70;71.60;;;;;;4944100;29;21402;-85
2021/04/30 06:27:53;;;;;;;16.42;7.28;;;7.80;70.10;;;;;;4954670;28;20050;-84
2021/04/30 06:30:21;;;;;;;13.88;7.13;;;7.80;71.20;;;;;;4960817;28;20066;-86
2021/04/30 06:32:48;;;;;;;15.93;7.50;;;8.10;69.10;;;;;;4945432;29;20331;-84
2021/04/30 06:35:15;;;;;;;13.32;6.88;;;8.00;69.70;;;;;;4962838;28;20094;-86
2021/04/30 06:37:42;;;;;;;13.48;7.32;;;7.80;69.50;;;;;;4963989;28;20054;-86
2021/04/30 06:40:10;;;;;;;17.35;7.78;;;7.60;70.50;;;;;;4961881;28;20051;-86
2021/04/30 06:42:37;;;;;;;12.80;7.30;;;7.60;70.30;;;;;;4947437;29;20055;-85
2021/04/30 06:45:05;;;;;;;15.13;7.15;;;7.70;71.00;;;;;;4961233;28;20051;-85
2021/04/30 06:47:34;;;;;;;13.65;7.53;;;8.10;70.00;;;;;;4963275;28;20142;-86
2021/04/30 06:50:07;;;;;;;14.90;7.82;;;8.20;69.20;;;;;;4955327;28;20055;-86
2021/04/30 06:52:34;;;;;;;15.88;7.68;;;8.40;68.80;;;;;;4946324;29;20637;-84
2021/04/30 06:55:09;;;;;;;12.95;7.20;;;8.70;66.00;;;;;;4964317;28;20057;-82
2021/04/30 06:57:36;;;;;;;14.23;7.85;;;8.70;65.20;;;;;;4952103;28;20059;-83
2021/04/30 07:00:08;;;;;;;12.68;7.70;;;8.90;65.00;;;;;;4959579;28;20346;-84
2021/04/30 07:02:36;;;;;;;14.68;7.28;;;9.20;65.60;;;;;;4952913;28;20250;-85
2021/04/30 07:05:06;;;;;;;13.07;7.57;;;9.60;63.50;;;;;;4955652;28;20259;-85
2021/04/30 07:07:34;;;;;;;15.55;8.05;;;9.50;63.30;;;;;;4968249;28;20095;-86
2021/04/30 07:10:01;;;;;;;15.68;7.60;;;9.70;62.80;;;;;;4961887;28;20050;-85
2021/04/30 07:12:30;;;;;;;11.55;6.47;;;9.70;61.80;;;;;;4961903;28;20377;-84
2021/04/30 07:14:57;;;;;;;14.02;7.30;;;9.70;63.00;;;;;;4972640;28;20106;-81
2021/04/30 07:17:24;;;;;;;16.02;7.88;;;9.80;62.50;;;;;;4962417;28;20066;-85
2021/04/30 07:19:52;;;;;;;18.30;8.27;;;9.80;62.30;;;;;;4960358;28;20059;-85
2021/04/30 07:22:19;;;;;;;15.40;7.60;;;9.80;62.80;;;;;;4962913;28;20067;-85
2021/04/30 07:24:46;;;;;;;13.63;7.80;;;9.80;62.50;;;;;;4977432;28;20073;-86
2021/04/30 07:27:17;;;;;;;13.32;7.72;;;9.80;63.00;;;;;;4963224;28;20147;-85
2021/04/30 07:29:50;;;;;;;14.48;6.97;;;10.20;62.40;;;;;;4971496;28;20070;-84
2021/04/30 07:32:17;;;;;;;13.38;7.15;;;10.80;60.80;;;;;;4960223;28;20057;-86
2021/04/30 07:34:44;;;;;;;16.17;7.05;;;11.10;59.70;;;;;;4965161;28;20066;-86
2021/04/30 07:37:12;;;;;;;10.75;6.80;;;11.20;58.00;;;;;;4972022;28;20047;-86
2021/04/30 07:39:40;;;;;;;15.93;7.60;;;11.40;58.10;;;;;;4954970;28;20098;-83
2021/04/30 07:42:09;;;;;;;14.90;7.82;;;11.60;57.30;;;;;;4941577;28;20071;-86
2021/04/30 07:44:36;;;;;;;13.30;7.43;;;11.40;56.90;;;;;;4960037;28;20148;-82
2021/04/30 07:47:03;;;;;;;16.30;6.88;;;11.50;57.20;;;;;;4933626;28;20351;-84
2021/04/30 07:49:31;;;;;;;20.85;8.23;;;11.60;58.20;;;;;;4954419;28;20048;-84
2021/04/30 07:51:58;;;;;;;16.35;7.50;;;12.00;56.40;;;;;;4953263;29;20055;-85
2021/04/30 07:54:26;;;;;;;15.65;7.85;;;11.90;55.80;;;;;;4949504;28;20046;-84
2021/04/30 07:56:53;;;;;;;13.07;6.80;;;11.90;55.30;;;;;;4954494;28;20181;-82
2021/04/30 07:59:20;;;;;;;13.02;7.13;;;12.20;55.00;;;;;;4975667;28;20339;-86
2021/04/30 08:01:48;;;;;;;14.85;6.75;;;12.30;55.30;;;;;;4959804;28;20189;-85
2021/04/30 08:04:15;;;;;;;12.98;6.38;;;12.30;54.40;;;;;;4935924;28;20057;-84
2021/04/30 08:06:42;;;;;;;15.77;7.35;;;12.00;55.30;;;;;;4963838;28;20058;-82
2021/04/30 08:09:10;;;;;;;14.93;7.10;;;12.10;55.10;;;;;;4960258;28;20070;-85
2021/04/30 08:11:38;;;;;;;12.10;6.88;;;12.20;54.40;;;;;;4962581;28;20069;-87
2021/04/30 08:14:07;;;;;;;13.90;6.95;;;12.00;54.40;;;;;;4956312;28;20215;-84
2021/04/30 08:16:34;;;;;;;12.60;6.70;;;12.00;55.20;;;;;;4978349;28;20050;-86
2021/04/30 08:19:04;;;;;;;13.07;6.35;;;12.30;55.50;;;;;;4961183;28;20047;-84
2021/04/30 08:21:34;;;;;;;14.15;7.40;;;12.70;54.30;;;;;;4960537;28;20127;-82
2021/04/30 08:24:03;;;;;;;15.38;7.40;;;12.50;53.70;;;;;;4946554;28;20062;-85
2021/04/30 08:26:31;;;;;;;14.88;6.63;;;12.40;53.70;;;;;;4964073;28;20051;-83
2021/04/30 08:28:59;;;;;;;12.75;6.70;;;12.20;53.90;;;;;;4953414;28;20059;-82
2021/04/30 08:31:28;;;;;;;13.65;7.03;;;12.20;54.50;;;;;;4958088;28;20061;-85
2021/04/30 08:33:55;;;;;;;12.50;6.97;;;12.40;53.80;;;;;;4958072;28;20066;-86
2021/04/30 08:36:23;;;;;;;14.02;7.22;;;12.60;53.70;;;;;;4953834;28;20051;-86
2021/04/30 08:38:50;;;;;;;12.88;6.68;;;12.60;53.40;;;;;;4962398;28;20111;-85
2021/04/30 08:41:19;;;;;;;11.23;5.72;;;13.10;51.90;;;;;;4961234;28;20051;-85
2021/04/30 08:43:47;;;;;;;14.07;6.38;;;13.10;52.90;;;;;;4954787;28;20051;-83
2021/04/30 08:46:15;;;;;;;12.98;6.35;;;13.70;51.20;;;;;;4945246;28;20240;-83
2021/04/30 08:48:44;;;;;;;12.68;6.38;;;13.80;49.70;;;;;;4976875;28;20130;-86
2021/04/30 08:51:11;;;;;;;12.68;5.93;;;13.70;49.90;;;;;;4961907;28;20052;-85
2021/04/30 08:53:39;;;;;;;13.15;5.95;;;13.70;49.80;;;;;;4976896;28;20074;-82
2021/04/30 08:56:07;;;;;;;8.75;5.40;;;13.60;49.80;;;;;;4959629;28;20040;-86
2021/04/30 08:58:36;;;;;;;12.18;6.18;;;13.50;49.90;;;;;;4959129;28;20052;-86
2021/04/30 09:01:06;;;;;;;10.30;5.15;;;13.50;49.80;;;;;;4957225;28;20054;-84
2021/04/30 09:03:35;;;;;;;14.50;5.78;;;13.60;49.00;;;;;;4979469;28;20050;-84
2021/04/30 09:06:04;;;;;;;12.43;6.25;;;13.70;49.00;;;;;;4969348;28;20058;-85
2021/04/30 09:08:45;;;;;;;11.13;4.97;;;14.20;48.70;;;;;;4933460;29;20055;-84
2021/04/30 09:11:31;;;;;;;12.75;5.85;;;14.20;47.90;;;;;;4955610;28;20067;-83
2021/04/30 09:14:45;;;;;;;14.45;6.30;;;14.40;46.90;;;;;;4968731;28;20047;-82
2021/04/30 09:17:15;;;;;;;10.95;5.60;;;14.60;46.70;;;;;;4948528;28;20062;-81
2021/04/30 09:19:47;;;;;;;11.68;5.32;;;14.70;46.80;;;;;;4966794;28;20051;-85
2021/04/30 09:22:16;;;;;;;14.73;6.45;;;14.60;46.80;;;;;;4940416;28;20043;-84
2021/04/30 09:24:49;;;;;;;10.40;5.25;;;14.40;46.90;;;;;;4950219;28;20122;-83
2021/04/30 09:27:31;;;;;;;10.43;5.75;;;14.50;46.60;;;;;;4948666;28;20128;-85
2021/04/30 09:30:15;;;;;;;16.85;5.45;;;14.60;46.20;;;;;;4955276;28;20064;-85
2021/04/30 09:33:00;;;;;;;10.35;5.43;;;14.90;46.10;;;;;;4952502;28;20039;-85
2021/04/30 09:35:34;;;;;;;12.68;5.75;;;15.10;44.80;;;;;;4938344;29;20071;-86
2021/04/30 09:38:13;;;;;;;11.38;6.50;;;14.90;46.30;;;;;;4949266;28;20062;-85
2021/04/30 09:40:41;;;;;;;10.77;6.18;;;15.20;46.90;;;;;;4961122;28;20246;-84
2021/04/30 09:43:11;;;;;;;11.10;6.50;;;15.40;45.60;;;;;;4962342;28;20047;-84
2021/04/30 09:45:39;;;;;;;11.82;5.90;;;15.30;46.60;;;;;;4966078;28;20058;-85
2021/04/30 09:48:10;;;;;;;12.45;6.63;;;15.90;44.80;;;;;;4963638;28;20090;-85
2021/04/30 09:50:39;;;;;;;12.17;5.60;;;16.20;43.40;;;;;;4964990;28;20098;-81
2021/04/30 09:53:13;;;;;;;12.57;5.60;;;16.20;43.10;;;;;;4966521;28;20059;-86
2021/04/30 09:55:46;;;;;;;10.98;5.70;;;16.10;43.20;;;;;;4961072;28;20122;-85
2021/04/30 09:58:18;;;;;;;11.23;5.78;;;15.60;44.80;;;;;;4956820;28;20130;-85
2021/04/30 10:00:47;;;;;;;12.23;6.32;;;15.40;45.40;;;;;;4933511;29;20052;-86
2021/04/30 10:03:19;;;;;;;9.93;5.90;;;15.10;46.10;;;;;;4941336;28;20055;-86
2021/04/30 10:06:05;;;;;;;12.65;6.53;;;14.90;46.30;;;;;;4941524;29;20047;-83
2021/04/30 10:08:34;;;;;;;12.90;6.88;;;14.60;47.40;;;;;;4968160;28;20635;-80
2021/04/30 10:11:03;;;;;;;13.30;5.80;;;14.60;47.50;;;;;;4954349;28;20059;-85
2021/04/30 10:13:33;;;;;;;10.07;5.55;;;14.60;47.60;;;;;;4965816;28;20039;-82
2021/04/30 10:16:00;;;;;;;9.88;5.15;;;14.30;47.90;;;;;;4978038;28;20102;-83
2021/04/30 10:18:29;;;;;;;9.80;5.53;;;14.20;48.10;;;;;;4921084;29;20047;-86
2021/04/30 10:20:56;;;;;;;10.27;5.32;;;14.10;49.00;;;;;;4946347;29;20047;-84
2021/04/30 10:23:26;;;;;;;10.15;5.47;;;14.00;49.20;;;;;;4964324;28;20056;-83
2021/04/30 10:25:54;;;;;;;10.15;5.75;;;14.10;49.30;;;;;;4971486;28;20050;-84
2021/04/30 10:28:26;;;;;;;9.05;4.70;;;14.10;49.10;;;;;;4961283;28;20035;-86
2021/04/30 10:31:00;;;;;;;11.45;5.65;;;14.10;48.60;;;;;;4942699;29;20063;-86
2021/04/30 10:33:36;;;;;;;11.10;5.70;;;14.40;48.20;;;;;;4965863;28;20326;-84
2021/04/30 10:36:13;;;;;;;10.38;5.60;;;14.50;48.20;;;;;;4964183;28;20047;-86
2021/04/30 10:38:45;;;;;;;12.27;6.68;;;14.60;47.80;;;;;;4956009;29;20118;-85
2021/04/30 10:41:13;;;;;;;11.07;5.03;;;14.70;47.20;;;;;;4957097;28;20227;-85
2021/04/30 10:43:41;;;;;;;9.38;5.18;;;14.90;47.30;;;;;;4956211;28;20135;-85
2021/04/30 10:46:21;;;;;;;10.20;5.20;;;15.00;47.20;;;;;;4967409;28;20051;-86
2021/04/30 10:49:19;;;;;;;11.38;6.32;;;15.30;46.50;;;;;;4950208;28;20077;-86
2021/04/30 10:52:16;;;;;;;12.95;6.05;;;15.50;45.90;;;;;;4961075;28;20374;-85
2021/04/30 10:54:45;;;;;;;9.68;5.50;;;15.80;44.80;;;;;;4959393;28;20539;-82
2021/04/30 10:57:13;;;;;;;9.82;5.28;;;16.00;44.60;;;;;;4962464;28;20212;-86
2021/04/30 10:59:45;;;;;;;11.35;6.32;;;16.00;44.30;;;;;;4960497;28;20146;-86
2021/04/30 11:02:17;;;;;;;12.73;6.60;;;16.00;44.50;;;;;;4966795;28;20040;-85
2021/04/30 11:05:10;;;;;;;9.25;5.45;;;16.00;44.40;;;;;;4960423;28;20055;-87
2021/04/30 11:07:39;;;;;;;10.10;5.40;;;16.10;44.20;;;;;;4974121;28;20392;-87
2021/04/30 11:10:36;;;;;;;10.73;5.88;;;15.70;45.10;;;;;;4976464;28;20381;-86
2021/04/30 11:13:15;;;;;;;13.55;5.93;;;15.60;45.20;;;;;;4955991;28;20039;-84
2021/04/30 11:16:01;;;;;;;12.30;6.22;;;15.70;44.50;;;;;;4942260;29;20047;-86
2021/04/30 11:18:31;;;;;;;11.05;5.78;;;15.60;44.50;;;;;;4950671;28;20349;-83
2021/04/30 11:21:04;;;;;;;11.18;5.78;;;15.80;45.20;;;;;;4951343;28;20051;-85
2021/04/30 11:23:47;;;;;;;11.45;6.18;;;16.00;44.30;;;;;;4957048;28;20485;-84
2021/04/30 11:26:15;;;;;;;;;;;16.00;43.80;;;;;;4966130;28;20055;-86
2021/04/30 11:29:10;;;;;;;11.85;5.75;;;15.80;44.40;;;;;;4954914;28;19962;-84
2021/04/30 11:31:39;;;;;;;8.98;5.47;;;15.60;44.70;;;;;;4953979;28;20043;-85
2021/04/30 11:34:19;;;;;;;11.25;5.70;;;15.10;45.80;;;;;;4955845;28;20086;-82
2021/04/30 11:36:50;;;;;;;9.18;4.70;;;15.40;45.40;;;;;;4964990;28;20118;-85
2021/04/30 11:39:20;;;;;;;8.75;4.97;;;15.80;45.30;;;;;;4957706;28;20137;-85
2021/04/30 11:41:49;;;;;;;10.30;6.25;;;16.30;43.90;;;;;;4952066;28;20063;-85
2021/04/30 11:44:18;;;;;;;11.20;6.05;;;16.60;42.80;;;;;;4970576;28;20055;-86
2021/04/30 11:46:52;;;;;;;11.48;6.20;;;16.50;42.80;;;;;;4933833;29;20043;-84
2021/04/30 11:49:20;;;;;;;10.02;5.43;;;16.20;43.50;;;;;;4957945;28;20101;-83
2021/04/30 11:51:50;;;;;;;10.13;5.30;;;16.10;44.20;;;;;;4960694;28;20183;-85
2021/04/30 11:54:19;;;;;;;10.80;5.18;;;15.90;44.00;;;;;;4950774;28;20051;-86
2021/04/30 11:56:57;;;;;;;10.60;5.63;;;15.50;44.20;;;;;;4949514;28;20043;-85
2021/04/30 11:59:24;;;;;;;9.10;5.38;;;15.20;44.90;;;;;;4961027;28;20302;-84
2021/04/30 12:02:00;;;;;;;13.18;5.13;;;14.90;46.40;;;;;;4949351;28;20126;-83
2021/04/30 12:04:49;;;;;;;11.05;6.05;;;14.70;47.10;;;;;;4953585;29;20069;-84
2021/04/30 12:07:37;;;;;;;10.50;4.82;;;14.40;47.80;;;;;;4966057;28;20110;-85
2021/04/30 12:10:22;;;;;;;12.02;5.25;;;14.30;48.00;;;;;;4967616;28;20051;-85
2021/04/30 12:12:50;;;;;;;9.25;5.18;;;14.10;48.40;;;;;;4968131;28;20062;-86
2021/04/30 12:15:30;;;;;;;10.90;5.57;;;14.10;49.20;;;;;;4949869;28;20047;-86
2021/04/30 12:17:58;;;;;;;12.40;6.45;;;13.90;50.20;;;;;;4949919;28;20047;-87
2021/04/30 12:20:28;;;;;;;12.35;6.22;;;13.90;50.70;;;;;;4955981;28;20660;-86
2021/04/30 12:23:11;;;;;;;8.88;5.55;;;13.80;50.60;;;;;;4947606;28;20115;-85
2021/04/30 12:25:41;;;;;;;9.63;5.85;;;13.70;50.70;;;;;;4951249;28;20059;-86
2021/04/30 12:28:30;;;;;;;10.60;5.38;;;13.50;51.40;;;;;;4952471;28;20243;-86
2021/04/30 12:31:06;;;;;;;11.00;5.65;;;13.60;52.50;;;;;;4964620;28;20066;-85
2021/04/30 12:33:46;;;;;;;9.25;5.43;;;13.50;52.40;;;;;;4956061;28;20731;-82
2021/04/30 12:36:17;;;;;;;11.38;6.28;;;13.40;52.90;;;;;;4966596;28;20574;-82
2021/04/30 12:38:47;;;;;;;10.95;5.35;;;13.40;52.60;;;;;;4964130;28;20054;-85
2021/04/30 12:41:16;;;;;;;9.93;5.40;;;13.60;51.40;;;;;;4959797;28;20035;-85
2021/04/30 12:43:44;;;;;;;11.57;6.05;;;13.60;50.70;;;;;;4964489;28;20055;-84
2021/04/30 12:46:16;;;;;;;11.60;6.15;;;13.50;50.70;;;;;;4959760;28;20066;-85
2021/04/30 12:48:46;;;;;;;11.50;6.00;;;13.50;52.20;;;;;;4948137;28;20050;-84
2021/04/30 12:51:15;;;;;;;12.03;6.43;;;13.60;52.30;;;;;;4970368;28;20062;-86
2021/04/30 12:53:43;;;;;;;11.68;6.47;;;13.70;51.90;;;;;;4969323;28;20062;-85
2021/04/30 12:56:25;;;;;;;10.93;6.60;;;13.80;51.70;;;;;;4953580;28;20051;-82
2021/04/30 12:59:10;;;;;;;14.30;6.68;;;13.80;51.80;;;;;;4958946;28;20051;-83
2021/04/30 13:01:38;;;;;;;11.05;6.35;;;13.80;51.70;;;;;;4958494;28;20115;-83